Time;durP1;ratioP1;P1;durP2;ratioP2;P2;SDS_P1;SDS_P2;PMS_P1;PMS_P2;Temp;Humidity;BMP_temperature;BMP_pressure;BME280_temperature;BME280_humidity;BME280_pressure;Samples;Min_cycle;Max_cycle;Signal;HPM_P1;HPM_P2
2021/04/13 00:02:18;;;;;;;3.07;2.37;;;;;;;-1.18;98.56;101997.09;5010592;28;20048;-81
2021/04/13 00:04:50;;;;;;;3.20;2.10;;;;;;;-1.24;98.69;102001.09;5024059;28;20041;-81
2021/04/13 00:07:22;;;;;;;3.10;2.40;;;;;;;-1.24;98.52;101998.50;4976190;28;20059;-81
2021/04/13 00:09:49;;;;;;;5.43;3.03;;;;;;;-1.29;98.77;102002.56;5008933;28;20041;-83
2021/04/13 00:12:21;;;;;;;3.47;2.40;;;;;;;-1.29;98.49;101999.97;4997913;28;20452;-81
2021/04/13 00:14:54;;;;;;;5.17;2.20;;;;;;;-1.35;98.76;102004.84;5002482;28;20049;-81
2021/04/13 00:17:23;;;;;;;2.97;2.43;;;;;;;-1.37;99.48;102002.19;4993142;28;20041;-81
2021/04/13 00:20:10;;;;;;;3.33;2.17;;;;;;;-1.38;99.39;102000.41;4996997;28;20041;-81
2021/04/13 00:22:40;;;;;;;3.33;2.30;;;;;;;-1.33;97.93;102003.25;4990049;28;20522;-82
2021/04/13 00:25:08;;;;;;;2.90;2.40;;;;;;;-1.39;98.42;101992.56;5011550;28;20056;-82
2021/04/13 00:27:34;;;;;;;4.27;2.60;;;;;;;-1.33;99.15;101991.16;4988487;28;20045;-81
2021/04/13 00:30:15;;;;;;;2.97;1.97;;;;;;;-1.46;98.46;102000.03;5021215;28;20068;-82
2021/04/13 00:33:01;;;;;;;3.77;2.50;;;;;;;-1.47;99.56;101997.34;5013914;28;20135;-81
2021/04/13 00:35:35;;;;;;;3.70;2.43;;;;;;;-1.47;99.30;101999.94;5006848;28;20049;-80
2021/04/13 00:38:20;;;;;;;;;;;;;;;-1.49;98.49;101997.28;5003086;28;20501;-82
2021/04/13 00:40:48;;;;;;;3.45;2.05;;;;;;;-1.56;99.22;101995.19;5021469;28;19921;-83
2021/04/13 00:43:17;;;;;;;4.07;2.20;;;;;;;-1.51;98.72;102005.81;5017297;28;20152;-82
2021/04/13 00:45:45;;;;;;;3.27;2.10;;;;;;;-1.59;98.32;102007.13;5001012;28;20045;-83
2021/04/13 00:48:18;;;;;;;4.20;2.20;;;;;;;-1.60;97.81;102006.22;5049201;22;20215;-81
2021/04/13 00:50:47;;;;;;;3.23;2.27;;;;;;;-1.64;97.79;102006.00;5024661;28;20041;-81
2021/04/13 00:53:24;;;;;;;2.80;1.90;;;;;;;-1.72;98.45;102003.91;5006682;28;20058;-82
2021/04/13 00:55:53;;;;;;;3.30;2.20;;;;;;;-1.70;98.33;102001.38;5008133;28;20046;-80
2021/04/13 00:58:24;;;;;;;3.03;2.10;;;;;;;-1.72;96.85;102016.84;4993567;28;20104;-80
2021/04/13 01:00:56;;;;;;;3.43;1.90;;;;;;;-1.75;97.20;102010.66;5002174;28;20095;-82
2021/04/13 01:03:28;;;;;;;3.83;2.17;;;;;;;-1.79;97.61;102008.69;5022943;28;20037;-82
2021/04/13 01:05:58;;;;;;;3.77;2.13;;;;;;;-1.89;98.47;102009.03;5021031;28;20045;-82
2021/04/13 01:08:33;;;;;;;3.80;2.20;;;;;;;-1.93;98.94;102001.91;5003812;28;21472;-81
2021/04/13 01:11:08;;;;;;;2.70;2.07;;;;;;;-1.93;98.80;102010.59;5019758;28;20042;-80
2021/04/13 01:13:55;;;;;;;2.40;1.70;;;;;;;-1.96;99.18;102012.13;5001333;28;20045;-81
2021/04/13 01:16:27;;;;;;;4.33;2.40;;;;;;;-1.95;98.73;102003.53;5028221;28;20030;-81
2021/04/13 01:19:12;;;;;;;3.07;2.10;;;;;;;-1.98;99.49;101999.09;5007737;28;20129;-80
2021/04/13 01:21:43;;;;;;;3.73;1.80;;;;;;;-2.00;99.20;102008.50;5020170;28;20693;-81
2021/04/13 01:24:21;;;;;;;5.23;2.30;;;;;;;-1.98;98.25;101999.97;5011149;28;20041;-81
2021/04/13 01:26:49;;;;;;;3.10;2.27;;;;;;;-2.02;97.91;102010.09;5005647;28;20457;-81
2021/04/13 01:29:17;;;;;;;2.90;2.17;;;;;;;-2.06;98.15;102000.41;5004879;28;20037;-81
2021/04/13 01:31:52;;;;;;;3.87;1.97;;;;;;;-2.10;98.01;102004.53;5009662;28;20037;-81
2021/04/13 01:34:35;;;;;;;3.13;2.13;;;;;;;-2.10;97.96;102003.63;5005027;28;20422;-81
2021/04/13 01:37:07;;;;;;;3.10;1.80;;;;;;;-2.15;98.48;102003.41;5003138;28;20487;-81
2021/04/13 01:39:44;;;;;;;2.77;1.93;;;;;;;-2.19;98.34;102000.56;5008467;28;20149;-81
2021/04/13 01:42:10;;;;;;;2.73;2.07;;;;;;;-2.17;98.00;102006.72;5023459;28;20045;-81
2021/04/13 01:44:40;;;;;;;3.33;2.10;;;;;;;-2.18;97.90;102008.44;5003135;28;20068;-81
2021/04/13 01:47:08;;;;;;;3.30;2.07;;;;;;;-2.20;97.82;102011.72;4981842;28;20449;-81
2021/04/13 01:49:43;;;;;;;2.50;2.03;;;;;;;-2.11;98.80;102009.63;4999921;28;20111;-82
2021/04/13 01:52:11;;;;;;;3.33;2.33;;;;;;;-2.11;99.86;102005.31;5006099;28;20045;-82
2021/04/13 01:54:38;;;;;;;3.73;2.30;;;;;;;-2.21;99.91;102005.66;4987549;28;20399;-81
2021/04/13 01:57:13;;;;;;;4.30;2.17;;;;;;;-2.30;100.00;102005.19;5023459;28;20555;-81
2021/04/13 01:59:42;;;;;;;4.57;2.53;;;;;;;-2.34;99.81;102005.84;4993532;28;20383;-81
2021/04/13 02:02:17;;;;;;;3.27;1.83;;;;;;;-2.37;99.63;102003.97;5007803;28;20041;-80
2021/04/13 02:04:48;;;;;;;3.10;2.10;;;;;;;-2.41;98.95;102002.03;4996934;28;20049;-81
2021/04/13 02:10:02;;;;;;;4.37;2.07;;;;;;;-2.43;99.01;102008.81;5001468;28;20103;-81
2021/04/13 02:12:30;;;;;;;4.70;2.33;;;;;;;-2.48;99.33;102012.84;4984613;28;20262;-81
2021/04/13 02:15:20;;;;;;;3.33;2.10;;;;;;;-2.50;99.91;102013.59;5005489;28;20046;-81
2021/04/13 02:17:53;;;;;;;3.97;2.90;;;;;;;-2.47;100.00;102012.03;4991915;28;20129;-81
2021/04/13 02:20:33;;;;;;;3.27;2.30;;;;;;;-2.46;100.00;102005.16;5015919;28;20125;-82
2021/04/13 02:23:00;;;;;;;3.53;2.00;;;;;;;-2.51;100.00;102011.81;5016907;28;20046;-81
2021/04/13 02:25:33;;;;;;;2.90;2.00;;;;;;;-2.54;100.00;102004.75;5008851;28;20045;-81
2021/04/13 02:28:00;;;;;;;3.47;2.10;;;;;;;-2.54;99.96;102009.94;4996047;28;20038;-81
2021/04/13 02:30:36;;;;;;;5.03;2.40;;;;;;;-2.57;99.65;102012.38;5008738;28;20049;-81
2021/04/13 02:33:11;;;;;;;3.97;2.50;;;;;;;-2.60;99.26;102018.28;5008550;28;20046;-81
2021/04/13 02:35:39;;;;;;;2.30;1.90;;;;;;;-2.61;99.09;102013.91;5003050;28;20414;-81
2021/04/13 02:38:07;;;;;;;3.87;1.87;;;;;;;-2.67;98.75;102007.50;5002673;28;20511;-81
2021/04/13 02:41:00;;;;;;;2.20;1.90;;;;;;;-2.70;98.94;102012.50;5001686;28;20121;-82
2021/04/13 02:43:32;;;;;;;3.80;2.90;;;;;;;-2.72;98.49;102009.81;4984342;28;20046;-81
2021/04/13 02:46:02;;;;;;;4.23;2.10;;;;;;;-2.70;98.65;102000.44;4977405;28;20046;-82
2021/04/13 02:48:30;;;;;;;3.03;1.90;;;;;;;-2.72;99.48;101999.47;4982184;28;20045;-81
2021/04/13 02:51:01;;;;;;;2.67;1.77;;;;;;;-2.70;98.63;102015.97;5003794;28;20084;-80
2021/04/13 02:53:35;;;;;;;2.93;2.10;;;;;;;-2.75;98.25;102013.94;5018184;28;20057;-81
2021/04/13 02:56:23;;;;;;;4.13;2.30;;;;;;;-2.84;99.07;102016.91;5014081;28;20045;-81
2021/04/13 02:59:00;;;;;;;4.80;1.97;;;;;;;-2.84;98.80;102016.91;5016323;28;20042;-81
2021/04/13 03:01:27;;;;;;;2.77;2.20;;;;;;;-2.84;98.57;102010.06;4989702;28;20046;-82
2021/04/13 03:04:00;;;;;;;3.67;2.23;;;;;;;-2.81;98.68;102016.19;5000661;28;20042;-81
2021/04/13 03:06:27;;;;;;;3.40;1.97;;;;;;;-2.89;98.59;102013.19;5014336;28;20056;-81
2021/04/13 03:08:53;;;;;;;4.00;2.20;;;;;;;-2.88;98.16;102013.25;5008536;28;20660;-82
2021/04/13 03:11:25;;;;;;;4.03;2.30;;;;;;;-2.88;98.51;102014.94;5000436;28;20414;-81
2021/04/13 03:13:52;;;;;;;3.07;1.77;;;;;;;-2.96;98.32;102005.88;5020192;28;20438;-81
2021/04/13 03:16:29;;;;;;;3.20;2.30;;;;;;;-2.97;98.13;102007.56;4998425;28;20056;-81
2021/04/13 03:18:58;;;;;;;3.13;2.13;;;;;;;-2.96;98.50;102014.53;5006224;28;20052;-82
2021/04/13 03:21:30;;;;;;;3.60;2.30;;;;;;;-2.97;98.85;102015.34;4983692;28;20530;-81
2021/04/13 03:23:57;;;;;;;3.03;2.00;;;;;;;-2.97;98.70;102010.16;4990582;28;20050;-81
2021/04/13 03:26:36;;;;;;;3.13;2.03;;;;;;;-2.92;97.85;102015.59;5002815;28;20506;-81
2021/04/13 03:29:07;;;;;;;5.27;2.10;;;;;;;-3.00;98.45;102012.59;5026109;28;20053;-81
2021/04/13 03:31:34;;;;;;;3.17;2.17;;;;;;;-3.08;99.22;102015.56;5009873;28;20040;-81
2021/04/13 03:34:03;;;;;;;3.53;2.00;;;;;;;-3.02;99.26;102016.78;5008094;28;20099;-80
2021/04/13 03:36:30;;;;;;;2.53;1.80;;;;;;;-3.07;98.82;102013.03;5005961;28;20065;-82
2021/04/13 03:39:09;;;;;;;3.47;2.30;;;;;;;-3.13;99.07;102018.75;4994831;28;20049;-81
2021/04/13 03:41:40;;;;;;;4.30;2.30;;;;;;;-3.13;98.96;102020.44;5027131;28;20051;-79
2021/04/13 03:44:07;;;;;;;3.10;1.97;;;;;;;-3.11;99.59;102018.88;4993642;28;20042;-80
2021/04/13 03:46:37;;;;;;;3.30;2.10;;;;;;;-3.17;99.23;102019.41;4988118;28;20048;-81
2021/04/13 03:49:07;;;;;;;4.40;2.30;;;;;;;-3.14;98.68;102022.16;4997318;28;20037;-80
2021/04/13 03:51:38;;;;;;;3.33;2.27;;;;;;;-3.14;98.85;102026.44;5009690;28;20123;-81
2021/04/13 03:54:27;;;;;;;2.70;2.40;;;;;;;-3.22;99.47;102022.50;4980616;28;20128;-80
2021/04/13 03:56:54;;;;;;;4.03;2.10;;;;;;;-3.12;98.42;102022.22;5002816;28;20103;-82
2021/04/13 03:59:25;;;;;;;2.60;2.17;;;;;;;-3.25;98.89;102027.53;5004477;28;20118;-81
2021/04/13 04:01:52;;;;;;;3.70;2.67;;;;;;;-3.25;99.64;102025.81;5015377;28;20030;-81
2021/04/13 04:04:32;;;;;;;4.00;2.20;;;;;;;-3.27;99.53;102029.13;5004409;28;20057;-81
2021/04/13 04:07:17;;;;;;;3.37;2.27;;;;;;;-3.26;99.22;102024.03;4993013;28;20072;-81
2021/04/13 04:09:43;;;;;;;4.60;2.50;;;;;;;-3.31;99.59;102029.75;4991358;28;20506;-81
2021/04/13 04:12:19;;;;;;;6.17;2.63;;;;;;;-3.28;99.10;102029.91;4992906;28;20049;-81
2021/04/13 04:15:02;;;;;;;6.37;3.60;;;;;;;-3.32;99.43;102027.97;5007538;28;20498;-81
2021/04/13 04:17:31;;;;;;;3.57;2.37;;;;;;;-3.29;99.38;102030.72;5012339;28;20446;-81
2021/04/13 04:20:06;;;;;;;4.30;2.80;;;;;;;-3.30;99.67;102031.53;5008701;28;20042;-81
2021/04/13 04:22:34;;;;;;;4.40;2.83;;;;;;;-3.32;99.95;102028.84;5001265;28;20041;-81
2021/04/13 04:25:13;;;;;;;3.83;2.90;;;;;;;-3.31;99.37;102034.91;5029406;28;20038;-81
2021/04/13 04:27:40;;;;;;;3.50;2.30;;;;;;;-3.29;99.25;102031.59;5007610;28;20045;-80
2021/04/13 04:30:24;;;;;;;3.50;2.50;;;;;;;-3.26;99.42;102047.31;5018358;28;20100;-81
2021/04/13 04:32:52;;;;;;;3.78;2.47;;;;;;;-3.28;99.42;102043.75;5008837;28;20041;-81
2021/04/13 04:35:43;;;;;;;5.53;3.07;;;;;;;-3.25;99.49;102041.34;4986192;28;20116;-81
2021/04/13 04:38:30;;;;;;;5.33;2.90;;;;;;;-3.18;99.54;102035.72;4983231;28;20050;-80
2021/04/13 04:41:02;;;;;;;4.13;3.07;;;;;;;-3.16;99.48;102040.97;4999507;28;20045;-80
2021/04/13 04:43:44;;;;;;;4.97;2.93;;;;;;;-3.07;99.72;102045.75;5027637;28;20045;-82
2021/04/13 04:46:28;;;;;;;5.23;3.13;;;;;;;-3.07;99.86;102049.25;5008286;28;20042;-82
2021/04/13 04:49:07;;;;;;;6.53;3.50;;;;;;;-3.02;100.00;102049.50;4979146;28;20072;-83
2021/04/13 04:51:33;;;;;;;5.40;3.37;;;;;;;-3.03;100.00;102048.59;4989327;28;20095;-82
2021/04/13 04:54:00;;;;;;;5.10;3.43;;;;;;;-3.00;100.00;102048.78;5003522;28;20065;-82
2021/04/13 04:56:26;;;;;;;5.50;3.83;;;;;;;-2.96;100.00;102058.47;5009620;28;20037;-82
2021/04/13 04:58:52;;;;;;;6.20;3.33;;;;;;;-2.92;100.00;102042.34;5009472;28;20045;-83
2021/04/13 05:01:19;;;;;;;7.20;3.70;;;;;;;-2.84;100.00;102051.44;5024606;28;20414;-83
2021/04/13 05:03:46;;;;;;;6.27;3.47;;;;;;;-2.77;100.00;102036.25;4994377;28;20129;-83
2021/04/13 05:06:13;;;;;;;6.47;4.40;;;;;;;-2.66;100.00;102048.09;4990006;28;20061;-82
2021/04/13 05:08:39;;;;;;;6.93;4.27;;;;;;;-2.62;100.00;102039.66;5003925;28;20038;-82
2021/04/13 05:11:09;;;;;;;7.80;4.57;;;;;;;-2.51;100.00;102053.22;4988192;28;20038;-82
2021/04/13 05:13:35;;;;;;;8.00;4.30;;;;;;;-2.45;100.00;102054.41;4993218;28;20045;-82
2021/04/13 05:16:01;;;;;;;7.13;4.37;;;;;;;-2.38;100.00;102056.53;5001068;28;20045;-82
2021/04/13 05:18:27;;;;;;;6.93;4.53;;;;;;;-2.25;100.00;102058.09;4982036;28;20059;-83
2021/04/13 05:20:54;;;;;;;8.13;4.90;;;;;;;-2.16;100.00;102060.28;4994239;28;20045;-83
2021/04/13 05:23:20;;;;;;;8.70;5.53;;;;;;;-2.11;100.00;102064.00;5002089;28;20044;-82
2021/04/13 05:25:47;;;;;;;8.80;5.10;;;;;;;-2.04;100.00;102060.91;5023323;28;20076;-81
2021/04/13 05:28:14;;;;;;;8.07;4.57;;;;;;;-1.98;100.00;102066.44;5001981;28;20049;-81
2021/04/13 05:30:40;;;;;;;9.30;4.97;;;;;;;-1.90;100.00;102065.13;5024890;28;20049;-81
2021/04/13 05:33:06;;;;;;;8.50;5.53;;;;;;;-1.84;100.00;102067.16;5013442;28;20041;-82
2021/04/13 05:35:33;;;;;;;11.63;6.17;;;;;;;-1.75;100.00;102070.22;5010158;28;20657;-81
2021/04/13 05:38:11;;;;;;;8.23;5.50;;;;;;;-1.69;100.00;102075.69;5003528;28;20165;-82
2021/04/13 05:40:38;;;;;;;10.03;6.00;;;;;;;-1.54;100.00;102080.78;5009535;28;20053;-83
2021/04/13 05:43:05;;;;;;;11.10;7.10;;;;;;;-1.35;100.00;102075.72;5006764;28;20041;-81
2021/04/13 05:45:35;;;;;;;12.20;6.50;;;;;;;-1.21;100.00;102087.69;5010574;28;20046;-81
2021/04/13 05:48:02;;;;;;;11.17;6.90;;;;;;;-1.11;100.00;102086.44;5021303;28;20517;-82
2021/04/13 05:50:34;;;;;;;12.77;7.93;;;;;;;-0.94;100.00;102088.16;5013703;28;20465;-82
2021/04/13 05:53:00;;;;;;;14.10;7.40;;;;;;;-0.81;100.00;102084.47;4995101;28;20046;-82
2021/04/13 05:55:30;;;;;;;11.83;7.53;;;;;;;-0.69;100.00;102086.75;4997387;28;20056;-81
2021/04/13 05:58:00;;;;;;;10.37;7.23;;;;;;;-0.42;100.00;102081.97;4994851;28;20439;-82
2021/04/13 06:00:27;;;;;;;11.27;6.77;;;;;;;-0.30;100.00;102090.34;5012450;28;20091;-82
2021/04/13 06:02:54;;;;;;;10.80;6.57;;;;;;;-0.16;100.00;102084.09;4981394;28;20213;-82
2021/04/13 06:05:22;;;;;;;9.60;6.57;;;;;;;-0.21;100.00;102092.47;5041409;28;20113;-83
2021/04/13 06:07:49;;;;;;;11.73;8.20;;;;;;;-0.08;100.00;102087.91;4995214;28;20045;-82
2021/04/13 06:10:16;;;;;;;9.13;6.43;;;;;;;-0.06;100.00;102088.88;5011937;28;20050;-83
2021/04/13 06:12:43;;;;;;;11.70;7.17;;;;;;;0.06;100.00;102083.31;5013596;28;20034;-83
2021/04/13 06:15:12;;;;;;;13.07;7.60;;;;;;;0.25;100.00;102093.75;5010189;28;20514;-82
2021/04/13 06:17:39;;;;;;;9.80;6.40;;;;;;;0.24;100.00;102091.94;5023107;28;20045;-82
2021/04/13 06:20:06;;;;;;;12.93;9.17;;;;;;;0.38;100.00;102097.75;5026253;28;20053;-81
2021/04/13 06:22:32;;;;;;;11.20;6.50;;;;;;;0.56;100.00;102100.25;4996542;28;20112;-82
2021/04/13 06:24:58;;;;;;;12.43;7.10;;;;;;;0.70;100.00;102096.53;4994872;28;20041;-82
2021/04/13 06:27:25;;;;;;;10.87;7.17;;;;;;;1.31;98.68;102104.28;4989005;28;20057;-82
2021/04/13 06:29:51;;;;;;;8.40;5.30;;;;;;;2.21;93.17;102091.22;5011862;28;20037;-83
2021/04/13 06:32:17;;;;;;;8.87;5.50;;;;;;;3.50;85.39;102092.13;5008775;28;20445;-84
2021/04/13 06:34:44;;;;;;;7.27;4.60;;;;;;;4.72;76.63;102085.19;5012423;28;22249;-82
2021/04/13 06:37:10;;;;;;;7.53;4.00;;;;;;;5.69;75.44;102084.91;4992078;28;20680;-83
2021/04/13 06:39:37;;;;;;;5.40;3.80;;;;;;;6.10;73.54;102084.09;5000363;28;20048;-84
2021/04/13 06:42:28;;;;;;;4.57;3.70;;;;;;;7.32;68.04;102086.31;5013435;28;20053;-82
2021/04/13 06:45:06;;;;;;;4.47;3.93;;;;;;;7.87;64.82;102086.22;4996571;28;20033;-83
2021/04/13 06:47:48;;;;;;;6.47;3.92;;;;;;;8.07;62.86;102076.84;5007071;28;20050;-83
2021/04/13 06:50:32;;;;;;;5.15;3.78;;;;;;;8.25;62.99;102094.63;5004285;28;20041;-83
2021/04/13 06:53:18;;;;;;;5.28;3.55;;;;;;;8.01;62.16;102091.66;5054657;23;20513;-82
2021/04/13 06:56:08;;;;;;;5.43;4.07;;;;;;;7.21;65.06;102094.88;4976053;28;20463;-82
2021/04/13 06:59:12;;;;;;;5.60;4.27;;;;;;;7.16;66.61;102099.19;4990167;28;20101;-78
2021/04/13 07:01:44;;;;;;;9.20;5.37;;;;;;;7.13;66.06;102101.75;4967394;28;20042;-78
2021/04/13 07:04:13;;;;;;;6.47;4.77;;;;;;;6.95;65.99;102095.31;4954638;28;20034;-78
2021/04/13 07:06:58;;;;;;;5.30;4.67;;;;;;;7.56;65.77;102100.66;5001461;28;20101;-80
2021/04/13 07:09:55;;;;;;;4.80;4.03;;;;;;;7.62;64.29;102090.25;4986343;28;20116;-81
2021/04/13 07:12:36;;;;;;;6.33;4.07;;;;;;;7.60;63.18;102089.34;4972014;28;20514;-78
2021/04/13 07:15:14;;;;;;;6.30;4.07;;;;;;;7.57;65.41;102102.47;4986298;28;20047;-79
2021/04/13 07:18:01;;;;;;;12.87;4.73;;;;;;;7.83;64.55;102097.56;4986446;28;20050;-78
2021/04/13 07:20:36;;;;;;;5.50;4.03;;;;;;;7.29;63.69;102104.66;5001324;28;20053;-78
2021/04/13 07:23:15;;;;;;;6.07;4.33;;;;;;;7.90;66.19;102092.41;4974240;28;20038;-81
2021/04/13 07:25:48;;;;;;;8.13;4.10;;;;;;;8.07;64.77;102091.72;4969524;28;20534;-78
2021/04/13 07:28:25;;;;;;;7.32;4.00;;;;;;;7.73;64.02;102093.03;5000727;28;20046;-79
2021/04/13 07:30:58;;;;;;;8.20;3.80;;;;;;;6.98;66.67;102105.03;5002809;28;20193;-78
2021/04/13 07:33:28;;;;;;;7.83;4.70;;;;;;;6.08;67.77;102108.53;4985914;28;20046;-82
2021/04/13 07:35:58;;;;;;;7.77;4.97;;;;;;;5.91;70.91;102110.78;4986835;28;20046;-78
2021/04/13 07:38:29;;;;;;;9.23;5.07;;;;;;;6.17;69.51;102106.09;4986161;28;20043;-78
2021/04/13 07:41:04;;;;;;;9.50;5.80;;;;;;;6.12;70.51;102102.47;4971109;28;20046;-78
2021/04/13 07:43:38;;;;;;;10.27;6.00;;;;;;;5.91;71.39;102116.03;4986557;28;20618;-80
2021/04/13 07:46:36;;;;;;;8.07;5.32;;;;;;;5.44;70.96;102107.91;4981170;28;20042;-82
2021/04/13 07:49:30;;;;;;;8.77;5.67;;;;;;;5.42;73.87;102112.25;4948792;28;20516;-81
2021/04/13 07:52:07;;;;;;;6.67;5.23;;;;;;;5.54;74.13;102120.38;4987628;28;20050;-80
2021/04/13 07:55:06;;;;;;;8.63;5.40;;;;;;;5.73;75.21;102115.59;4976524;28;20046;-81
2021/04/13 07:57:40;;;;;;;9.13;6.20;;;;;;;5.90;72.84;102114.22;4967705;28;20061;-80
2021/04/13 08:00:15;;;;;;;7.38;4.93;;;;;;;5.65;73.15;102111.06;4982754;28;20043;-81
2021/04/13 08:02:43;;;;;;;7.70;5.47;;;;;;;5.60;72.55;102107.44;4988228;28;20046;-80
2021/04/13 08:05:10;;;;;;;10.27;5.43;;;;;;;5.69;74.79;102105.88;4973135;28;20050;-80
2021/04/13 08:07:39;;;;;;;7.83;4.90;;;;;;;5.78;75.36;102096.47;4999751;28;20054;-81
2021/04/13 08:10:31;;;;;;;8.17;5.00;;;;;;;5.93;73.75;102101.22;4971440;28;20077;-80
2021/04/13 08:13:03;;;;;;;7.70;4.63;;;;;;;6.09;74.04;102097.16;4960375;28;20045;-81
2021/04/13 08:15:42;;;;;;;5.57;3.77;;;;;;;6.13;72.33;102092.00;4965087;28;20050;-81
2021/04/13 08:18:37;;;;;;;6.90;5.40;;;;;;;6.29;73.00;102102.81;4989954;28;20105;-80
2021/04/13 08:21:26;;;;;;;11.13;5.63;;;;;;;6.34;73.74;102103.81;4970649;28;20042;-81
2021/04/13 08:23:54;;;;;;;9.40;5.60;;;;;;;6.19;69.82;102096.50;4971233;28;20101;-81
2021/04/13 08:26:26;;;;;;;7.80;4.70;;;;;;;6.01;72.75;102098.75;4986276;28;20427;-81
2021/04/13 08:29:03;;;;;;;6.80;3.70;;;;;;;5.77;69.28;102102.56;4980879;28;20083;-81
2021/04/13 08:34:43;;;;;;;6.97;4.40;;;;;;;6.25;73.00;102104.50;4984030;28;20046;-81
2021/04/13 08:37:36;;;;;;;8.37;4.37;;;;;;;6.52;70.33;102104.16;4971288;28;20042;-80
2021/04/13 08:40:23;;;;;;;7.90;4.90;;;;;;;6.86;68.87;102105.66;4987175;28;20141;-81
2021/04/13 08:43:18;;;;;;;7.40;4.53;;;;;;;6.82;68.66;102105.59;4980131;28;20050;-80
2021/04/13 08:45:51;;;;;;;;;;;;;;;6.64;68.29;102111.38;4974207;28;20051;-81
2021/04/13 08:48:24;;;;;;;6.70;4.17;;;;;;;6.34;68.45;102111.69;4971617;28;19922;-81
2021/04/13 08:51:16;;;;;;;7.28;4.50;;;;;;;6.08;66.31;102114.66;4983075;28;20070;-81
2021/04/13 08:53:48;;;;;;;7.43;3.53;;;;;;;6.21;66.59;102116.66;4965513;28;20049;-80
2021/04/13 08:56:27;;;;;;;7.60;4.60;;;;;;;6.14;69.85;102113.91;4961524;28;20042;-82
2021/04/13 08:58:59;;;;;;;7.40;4.57;;;;;;;5.85;69.39;102113.22;4977720;28;20049;-81
2021/04/13 09:02:05;;;;;;;7.27;4.10;;;;;;;6.04;68.69;102117.16;4986242;28;20447;-81
2021/04/13 09:04:31;;;;;;;7.33;3.97;;;;;;;6.24;71.49;102114.97;4984221;28;20529;-81
2021/04/13 09:07:03;;;;;;;6.50;4.20;;;;;;;6.39;68.13;102117.88;4991311;28;20396;-82
2021/04/13 09:09:31;;;;;;;5.73;3.53;;;;;;;6.38;69.34;102117.00;4963663;28;20073;-82
2021/04/13 09:12:17;;;;;;;5.57;3.33;;;;;;;6.62;70.13;102111.34;4990347;28;20034;-81
2021/04/13 09:15:03;;;;;;;6.70;3.55;;;;;;;7.08;67.04;102116.56;4964373;28;20043;-81
2021/04/13 09:18:11;;;;;;;4.93;3.20;;;;;;;7.25;67.47;102113.34;4970749;28;20047;-79
2021/04/13 09:20:39;;;;;;;6.43;4.70;;;;;;;7.41;67.06;102113.63;4984824;28;20524;-83
2021/04/13 09:23:25;;;;;;;6.87;3.67;;;;;;;7.52;65.82;102117.28;4958590;28;20513;-80
2021/04/13 09:25:51;;;;;;;6.87;4.17;;;;;;;7.50;64.90;102108.50;4991775;28;20047;-80
2021/04/13 09:28:20;;;;;;;4.57;3.20;;;;;;;7.32;63.28;102114.34;4990456;28;20109;-82
2021/04/13 09:31:06;;;;;;;7.73;4.53;;;;;;;7.14;64.96;102104.38;4972531;28;20431;-83
2021/04/13 09:33:34;;;;;;;8.27;5.80;;;;;;;7.12;64.80;102108.75;4976948;28;20049;-81
2021/04/13 09:36:09;;;;;;;5.37;3.20;;;;;;;7.24;64.51;102111.59;5007733;28;20108;-81
2021/04/13 09:38:41;;;;;;;;;;;;;;;7.43;64.98;102104.88;4986048;28;20292;-83
2021/04/13 09:41:19;;;;;;;7.43;3.63;;;;;;;7.28;62.02;102105.50;5009794;28;20346;-80
2021/04/13 09:43:53;;;;;;;10.47;6.27;;;;;;;7.46;64.52;102106.66;4968973;28;20045;-84
2021/04/13 09:46:54;;;;;;;5.73;3.37;;;;;;;7.23;63.46;102114.16;4969502;28;20047;-82
2021/04/13 09:49:30;;;;;;;7.80;4.63;;;;;;;6.89;63.46;102108.34;4971047;28;20069;-81
2021/04/13 09:52:08;;;;;;;6.30;3.90;;;;;;;6.83;65.51;102103.00;4975701;28;20046;-82
2021/04/13 09:54:39;;;;;;;6.67;3.20;;;;;;;6.84;65.89;102107.38;4973889;28;20507;-82
2021/04/13 09:57:19;;;;;;;9.03;5.43;;;;;;;7.01;66.82;102099.81;4991946;28;20101;-83
2021/04/13 10:00:03;;;;;;;6.63;5.17;;;;;;;7.23;65.19;102101.03;4974079;28;20097;-81
2021/04/13 10:02:58;;;;;;;7.10;4.27;;;;;;;7.62;66.48;102095.50;5004675;28;20081;-81
2021/04/13 10:05:30;;;;;;;9.82;4.32;;;;;;;7.56;64.05;102095.41;4971368;28;20039;-81
2021/04/13 10:08:24;;;;;;;11.03;5.67;;;;;;;7.34;61.83;102097.72;4968256;28;20671;-82
2021/04/13 10:11:19;;;;;;;6.70;3.07;;;;;;;7.60;64.64;102097.25;4990554;28;20105;-83
2021/04/13 10:14:05;;;;;;;10.00;5.93;;;;;;;8.15;60.79;102100.59;4971156;28;20328;-80
2021/04/13 10:16:53;;;;;;;5.23;2.53;;;;;;;8.44;58.73;102087.84;4968643;28;20039;-83
2021/04/13 10:19:50;;;;;;;9.17;3.53;;;;;;;8.84;56.23;102083.88;5005967;28;20043;-82
2021/04/13 10:22:32;;;;;;;3.63;2.87;;;;;;;9.40;58.19;102085.19;4982437;28;20088;-82
2021/04/13 10:25:25;;;;;;;8.40;4.90;;;;;;;9.34;56.34;102093.94;4977114;28;20046;-82
2021/04/13 10:28:33;;;;;;;6.55;3.65;;;;;;;9.02;56.18;102088.41;4971425;28;20527;-83
2021/04/13 10:31:37;;;;;;;7.35;2.78;;;;;;;8.56;56.96;102087.06;4945744;28;20427;-82
2021/04/13 10:34:37;;;;;;;4.88;2.45;;;;;;;8.47;56.72;102090.50;4990289;28;20153;-79
2021/04/13 10:37:41;;;;;;;6.57;3.40;;;;;;;8.61;57.17;102090.66;4985610;28;20165;-82
2021/04/13 10:40:44;;;;;;;3.75;2.13;;;;;;;8.50;56.38;102082.63;5002938;28;20043;-83
2021/04/13 10:43:37;;;;;;;6.70;2.23;;;;;;;8.23;58.46;102095.44;4984002;28;20550;-79
2021/04/13 10:46:12;;;;;;;7.03;4.17;;;;;;;8.30;59.16;102092.91;4970049;28;20042;-82
2021/04/13 10:48:44;;;;;;;;;;;;;;;8.32;57.41;102087.63;4959416;28;20043;-83
2021/04/13 10:51:34;;;;;;;5.40;2.78;;;;;;;8.24;58.38;102092.84;4987897;28;19930;-80
2021/04/13 10:54:25;;;;;;;7.57;3.70;;;;;;;8.12;56.58;102092.69;4954381;28;20164;-83
2021/04/13 10:57:37;;;;;;;13.50;6.00;;;;;;;8.12;57.52;102098.81;4987457;28;20049;-83
2021/04/13 11:00:26;;;;;;;7.17;3.30;;;;;;;7.76;57.29;102087.81;4958403;28;20053;-83
2021/04/13 11:03:33;;;;;;;8.43;2.97;;;;;;;8.22;58.94;102089.28;4985811;28;20038;-82
2021/04/13 11:06:08;;;;;;;7.43;2.77;;;;;;;8.66;54.47;102081.03;4950367;28;20181;-82
2021/04/13 11:08:56;;;;;;;9.63;3.00;;;;;;;8.07;54.33;102089.09;4961154;28;20054;-81
2021/04/13 11:11:48;;;;;;;4.60;2.37;;;;;;;8.41;57.15;102080.78;5002914;28;20054;-80
2021/04/13 11:14:39;;;;;;;9.67;5.13;;;;;;;8.26;56.41;102088.47;4964604;28;20793;-80
2021/04/13 11:17:34;;;;;;;7.00;2.40;;;;;;;8.53;59.18;102077.41;4984775;28;20107;-81
2021/04/13 11:20:19;;;;;;;5.13;2.50;;;;;;;9.30;55.76;102068.41;4978778;28;20110;-80
2021/04/13 11:23:10;;;;;;;7.40;2.28;;;;;;;9.67;53.62;102061.63;4977190;28;20057;-83
2021/04/13 11:26:04;;;;;;;10.18;6.45;;;;;;;9.39;50.99;102062.31;4996426;28;20042;-83
2021/04/13 11:29:03;;;;;;;5.25;2.72;;;;;;;9.03;52.82;102067.34;4980845;28;20385;-81
2021/04/13 11:31:47;;;;;;;7.05;3.45;;;;;;;8.84;53.64;102069.81;4982494;28;20093;-82
2021/04/13 11:34:39;;;;;;;6.07;3.13;;;;;;;8.62;54.46;102073.97;4985234;28;20097;-83
2021/04/13 11:37:36;;;;;;;18.50;8.18;;;;;;;8.98;52.09;102070.78;4990282;28;20051;-82
2021/04/13 11:40:26;;;;;;;5.53;2.20;;;;;;;9.40;57.42;102066.72;4967995;28;20038;-84
2021/04/13 11:42:56;;;;;;;5.20;2.20;;;;;;;9.40;52.50;102064.97;4969840;28;20265;-80
2021/04/13 11:45:25;;;;;;;4.55;2.38;;;;;;;9.35;52.90;102060.56;4971797;28;20046;-83
2021/04/13 11:48:09;;;;;;;5.43;2.88;;;;;;;9.25;51.69;102056.97;4979441;28;20061;-80
2021/04/13 11:50:54;;;;;;;7.05;2.63;;;;;;;9.21;52.32;102066.59;4983717;28;20134;-84
2021/04/13 11:53:32;;;;;;;5.80;3.03;;;;;;;8.99;52.80;102068.16;4986766;28;20575;-80
2021/04/13 11:55:59;;;;;;;13.20;5.10;;;;;;;8.35;51.34;102062.28;4984686;28;20105;-80
2021/04/13 11:58:28;;;;;;;9.27;4.45;;;;;;;8.64;52.98;102059.06;4988469;28;20558;-82
2021/04/13 12:01:18;;;;;;;8.90;3.58;;;;;;;8.47;51.59;102058.88;4988285;28;20483;-79
2021/04/13 12:04:00;;;;;;;4.13;2.17;;;;;;;9.08;54.03;102050.66;4987102;28;20035;-79
2021/04/13 12:06:54;;;;;;;3.08;1.70;;;;;;;9.22;51.08;102047.25;5003971;28;20073;-80
2021/04/13 12:09:50;;;;;;;9.00;4.82;;;;;;;8.90;49.69;102048.75;4986813;28;20026;-78
2021/04/13 12:12:32;;;;;;;6.85;4.28;;;;;;;8.89;52.43;102054.91;4981812;28;20060;-78
2021/04/13 12:15:07;;;;;;;7.70;4.75;;;;;;;8.93;52.45;102054.94;4988243;28;20045;-78
2021/04/13 12:17:45;;;;;;;4.75;2.00;;;;;;;8.87;52.66;102054.88;4972170;28;20255;-82